Maple Creek, Canada
Current Conditions -  °F | °C
As of 3:00 PM on Friday 28 Nov 2014 (Local Time) from CYXH Reporting Station
Light Snow Light Snow  
Wind Chill: -15°   Ceiling: 900
Heat Index:   Visibility: 2mi
Dew Point:   Wind: 15mph
Humidity: 92%   Direction: 300°WNW
Pressure: 29.65"   Gusts: 24mph
Location:  49.91°N, 109.48°W
Report Text: CYXH 282100Z 30013G21KT 2SM -SN DRSN BKN009 OVC016 M16/M17 A2965 RMK ST5ST3 SLP084
Loading
Personal Weather Stations






























Interactive Weather Map New forecast layout! Learn more

10-Day Weather Forecast

Advertisements
Track Severe Weather on mobile